Time;durP1;ratioP1;P1;durP2;ratioP2;P2;SDS_P1;SDS_P2;PMS_P1;PMS_P2;Temp;Humidity;BMP_temperature;BMP_pressure;BME280_temperature;BME280_humidity;BME280_pressure;Samples;Min_cycle;Max_cycle;Signal;HPM_P1;HPM_P2
2022/04/02 00:00:56;;;;;;;7.53;2.28;;;1.80;99.90;;;;;;5120599;27;20050;-72
2022/04/02 00:03:22;;;;;;;9.10;2.63;;;1.70;99.90;;;;;;5155719;27;20103;-72
2022/04/02 00:05:49;;;;;;;8.02;2.35;;;1.70;99.90;;;;;;5120935;27;20050;-72
2022/04/02 00:08:15;;;;;;;8.32;2.53;;;1.70;99.90;;;;;;5120080;27;20478;-73
2022/04/02 00:10:41;;;;;;;7.82;2.13;;;1.80;99.90;;;;;;5136215;27;20099;-73
2022/04/02 00:13:07;;;;;;;8.20;2.50;;;1.70;99.90;;;;;;5136479;27;20101;-72
2022/04/02 00:15:32;;;;;;;6.30;2.00;;;1.70;99.90;;;;;;5120351;27;20082;-72
2022/04/02 00:17:58;;;;;;;9.07;2.55;;;1.70;99.90;;;;;;5137078;27;20042;-73
2022/04/02 00:20:24;;;;;;;8.35;2.63;;;1.60;99.90;;;;;;5136384;27;20180;-73
2022/04/02 00:25:35;;;;;;;6.97;2.35;;;1.50;99.90;;;;;;5146647;27;20047;-73
2022/04/02 00:28:01;;;;;;;9.63;2.58;;;1.60;99.90;;;;;;5115998;27;20112;-74
2022/04/02 00:30:27;;;;;;;6.72;2.63;;;1.50;99.90;;;;;;5135785;27;20046;-73
2022/04/02 00:32:53;;;;;;;9.63;2.25;;;1.50;99.90;;;;;;5122478;27;20130;-74
2022/04/02 00:35:18;;;;;;;7.32;2.40;;;1.50;99.90;;;;;;5115811;27;20047;-72
2022/04/02 00:37:44;;;;;;;11.55;3.20;;;1.60;99.90;;;;;;5099565;27;20055;-72
2022/04/02 00:40:10;;;;;;;8.85;2.50;;;1.60;99.90;;;;;;5114579;27;20039;-73
2022/04/02 00:42:37;;;;;;;10.27;2.42;;;1.60;99.90;;;;;;5099554;27;20144;-72
2022/04/02 00:45:03;;;;;;;7.75;2.60;;;1.50;99.90;;;;;;5116141;27;20058;-74
2022/04/02 00:47:29;;;;;;;6.80;2.05;;;1.50;99.90;;;;;;5082669;27;20043;-73
2022/04/02 00:49:54;;;;;;;12.80;3.42;;;1.50;99.90;;;;;;5099329;27;20050;-73
2022/04/02 00:52:21;;;;;;;7.97;2.50;;;1.40;99.90;;;;;;5084159;27;20047;-74
2022/04/02 00:54:49;;;;;;;11.00;3.47;;;1.40;99.90;;;;;;5119108;27;20462;-74
2022/04/02 00:57:15;;;;;;;10.18;2.90;;;1.50;99.90;;;;;;5118825;27;20054;-74
2022/04/02 00:59:41;;;;;;;9.30;2.63;;;1.30;99.90;;;;;;5119680;27;20047;-72
2022/04/02 01:02:07;;;;;;;10.52;3.35;;;1.30;99.90;;;;;;5104526;27;20043;-73
2022/04/02 01:04:34;;;;;;;9.77;2.95;;;1.30;99.90;;;;;;5108442;27;20058;-73
2022/04/02 01:07:01;;;;;;;9.70;2.70;;;1.30;99.90;;;;;;5119372;27;20085;-73
2022/04/02 01:09:27;;;;;;;10.23;2.67;;;1.30;99.90;;;;;;5134535;27;20512;-73
2022/04/02 01:11:54;;;;;;;7.32;2.20;;;1.30;99.90;;;;;;5153403;27;20039;-72
2022/04/02 01:14:20;;;;;;;8.55;1.85;;;1.20;99.90;;;;;;5136049;27;20126;-73
2022/04/02 01:16:46;;;;;;;8.73;2.35;;;1.20;99.90;;;;;;5136692;27;20058;-72
2022/04/02 01:19:12;;;;;;;5.95;2.05;;;1.20;99.90;;;;;;5102001;27;20055;-72
2022/04/02 01:21:38;;;;;;;9.02;2.25;;;1.20;99.90;;;;;;5137561;27;20068;-72
2022/04/02 01:24:04;;;;;;;7.40;2.80;;;1.20;99.90;;;;;;5153889;27;20039;-73
2022/04/02 01:26:30;;;;;;;9.93;2.73;;;1.10;99.90;;;;;;5135816;27;20050;-73
2022/04/02 01:29:00;;;;;;;8.63;2.63;;;1.10;99.90;;;;;;5135708;27;20066;-72
2022/04/02 01:31:27;;;;;;;7.10;2.20;;;1.10;99.90;;;;;;5118412;27;20184;-73
2022/04/02 01:33:54;;;;;;;9.95;2.33;;;1.10;99.90;;;;;;5135944;27;20050;-73
2022/04/02 01:36:20;;;;;;;7.80;2.80;;;1.10;99.90;;;;;;5119052;27;20436;-72
2022/04/02 01:38:46;;;;;;;6.85;2.28;;;1.10;99.90;;;;;;5154474;27;20047;-72
2022/04/02 01:41:13;;;;;;;8.73;3.05;;;1.00;99.90;;;;;;5134873;27;20051;-73
2022/04/02 01:43:38;;;;;;;11.50;2.70;;;1.20;99.90;;;;;;5136037;27;20047;-73
2022/04/02 01:46:05;;;;;;;9.35;2.63;;;1.00;99.90;;;;;;5136196;27;20510;-71
2022/04/02 01:48:32;;;;;;;9.10;1.90;;;1.10;99.90;;;;;;5135355;27;20053;-72
2022/04/02 01:50:58;;;;;;;8.98;2.08;;;1.00;99.90;;;;;;5124498;27;20051;-71
2022/04/02 01:53:24;;;;;;;10.88;2.47;;;1.10;99.90;;;;;;5109208;27;20194;-72
2022/04/02 01:55:51;;;;;;;8.65;3.42;;;1.00;99.90;;;;;;5138259;27;20556;-72
2022/04/02 01:58:17;;;;;;;7.47;2.78;;;1.00;99.90;;;;;;5137330;27;20126;-72
2022/04/02 02:00:44;;;;;;;9.60;2.72;;;0.90;99.90;;;;;;5156238;27;20078;-72
2022/04/02 02:03:11;;;;;;;6.68;2.20;;;0.90;99.90;;;;;;5120263;27;20043;-73
2022/04/02 02:05:37;;;;;;;8.55;2.70;;;0.90;99.90;;;;;;5138245;27;20058;-72
2022/04/02 02:08:03;;;;;;;8.55;2.20;;;0.80;99.90;;;;;;5139217;27;20068;-71
2022/04/02 02:10:29;;;;;;;11.43;2.50;;;0.80;99.90;;;;;;5156283;27;20222;-72
2022/04/02 02:12:55;;;;;;;9.65;3.00;;;0.80;99.90;;;;;;5139854;27;20514;-73
2022/04/02 02:15:23;;;;;;;9.27;3.13;;;0.90;99.90;;;;;;5137962;27;20058;-72
2022/04/02 02:17:49;;;;;;;;;;;0.80;99.90;;;;;;5152490;27;20058;-73
2022/04/02 02:20:17;;;;;;;12.05;3.17;;;0.90;99.90;;;;;;5135330;27;19926;-72
2022/04/02 02:22:44;;;;;;;10.75;2.63;;;0.80;99.90;;;;;;5150244;27;20047;-73
2022/04/02 02:25:12;;;;;;;9.93;2.90;;;0.70;99.90;;;;;;5131389;27;20055;-72
2022/04/02 02:27:38;;;;;;;8.98;2.95;;;0.80;99.90;;;;;;5148598;27;20055;-72
2022/04/02 02:30:11;;;;;;;10.13;2.35;;;0.80;99.90;;;;;;5137581;27;20054;-72
2022/04/02 02:32:38;;;;;;;10.45;2.55;;;0.70;99.90;;;;;;5146697;27;20035;-73
2022/04/02 02:37:48;;;;;;;9.18;2.47;;;0.60;99.90;;;;;;5135167;27;20103;-73
2022/04/02 02:40:15;;;;;;;10.90;3.03;;;0.70;99.90;;;;;;5116954;27;20054;-75
2022/04/02 02:42:41;;;;;;;10.10;2.88;;;0.60;99.90;;;;;;5134864;27;20099;-73
2022/04/02 02:45:07;;;;;;;8.57;2.85;;;0.60;99.90;;;;;;5153538;27;20050;-72
2022/04/02 02:47:33;;;;;;;9.45;2.90;;;0.60;99.90;;;;;;5134016;27;20061;-73
2022/04/02 02:50:00;;;;;;;10.50;2.90;;;0.60;99.90;;;;;;5134445;27;20078;-73
2022/04/02 02:52:27;;;;;;;7.93;2.60;;;0.60;99.90;;;;;;5152623;27;20057;-73
2022/04/02 02:54:54;;;;;;;9.50;2.97;;;0.50;99.90;;;;;;5132614;27;20066;-73
2022/04/02 02:57:20;;;;;;;15.70;2.45;;;0.60;99.90;;;;;;5113482;27;20097;-73
2022/04/02 02:59:46;;;;;;;13.02;3.95;;;0.50;99.90;;;;;;5113932;27;20498;-73
2022/04/02 03:02:11;;;;;;;9.90;2.53;;;0.60;99.90;;;;;;5111562;27;20446;-73
2022/04/02 03:04:37;;;;;;;8.73;2.80;;;0.50;99.90;;;;;;5150992;27;20046;-73
2022/04/02 03:07:04;;;;;;;12.85;2.75;;;0.50;99.90;;;;;;5134285;27;20098;-74
2022/04/02 03:09:29;;;;;;;11.88;3.20;;;0.40;99.90;;;;;;5115541;27;20534;-73
2022/04/02 03:11:57;;;;;;;9.63;3.05;;;0.50;99.90;;;;;;5097552;28;20043;-74
2022/04/02 03:14:22;;;;;;;10.55;3.03;;;0.40;99.90;;;;;;5113078;28;20055;-74
2022/04/02 03:16:48;;;;;;;9.77;2.90;;;0.40;99.90;;;;;;5113846;28;20054;-73
2022/04/02 03:19:14;;;;;;;10.52;3.15;;;0.30;99.90;;;;;;5131529;28;20055;-73
2022/04/02 03:21:40;;;;;;;8.38;2.90;;;0.30;99.90;;;;;;5110862;27;20515;-73
2022/04/02 03:24:06;;;;;;;11.68;2.83;;;0.30;99.90;;;;;;5115703;27;20445;-74
2022/04/02 03:26:31;;;;;;;10.52;3.20;;;0.30;99.90;;;;;;5133922;27;20078;-73
2022/04/02 03:28:57;;;;;;;10.43;3.10;;;0.30;99.90;;;;;;5137418;27;20246;-73
2022/04/02 03:31:23;;;;;;;9.55;2.65;;;0.30;99.90;;;;;;5156417;27;20046;-73
2022/04/02 03:33:49;;;;;;;10.98;2.95;;;0.30;99.90;;;;;;5156986;27;20046;-73
2022/04/02 03:36:15;;;;;;;9.05;2.90;;;0.30;99.90;;;;;;5138369;27;20072;-73
2022/04/02 03:38:41;;;;;;;10.60;3.35;;;0.20;99.90;;;;;;5156330;27;20045;-73
2022/04/02 03:41:07;;;;;;;10.43;3.17;;;0.20;99.90;;;;;;5136707;27;20038;-73
2022/04/02 03:43:33;;;;;;;9.15;3.30;;;0.20;99.90;;;;;;5120656;27;20043;-73
2022/04/02 03:48:44;;;;;;;13.60;3.53;;;0.20;99.90;;;;;;5137355;27;20046;-72
2022/04/02 03:51:10;;;;;;;11.50;3.40;;;0.20;99.90;;;;;;5117162;27;20141;-72
2022/04/02 03:53:36;;;;;;;13.48;3.70;;;0.20;99.90;;;;;;5116250;27;20043;-72
2022/04/02 03:56:02;;;;;;;11.07;3.25;;;0.20;99.90;;;;;;5115971;27;20039;-72
2022/04/02 03:58:28;;;;;;;10.88;3.53;;;0.10;99.90;;;;;;5116602;27;20047;-72
2022/04/02 04:00:54;;;;;;;11.82;3.08;;;0.20;99.90;;;;;;5116904;27;20522;-73
2022/04/02 04:03:20;;;;;;;8.80;2.78;;;0.30;99.90;;;;;;5117258;27;20044;-72
2022/04/02 04:05:46;;;;;;;10.40;3.40;;;0.20;99.90;;;;;;5126865;27;20480;-72
2022/04/02 04:08:12;;;;;;;12.30;2.80;;;0.20;99.90;;;;;;5117435;27;20047;-73
2022/04/02 04:10:38;;;;;;;9.98;3.35;;;0.20;99.90;;;;;;5123689;27;20641;-73
2022/04/02 04:13:03;;;;;;;11.25;3.47;;;0.10;99.90;;;;;;5133936;27;20051;-72
2022/04/02 04:15:29;;;;;;;12.88;2.92;;;0.10;99.90;;;;;;5154824;27;20078;-73
2022/04/02 04:17:57;;;;;;;12.00;3.13;;;0.20;99.90;;;;;;5137403;27;20126;-73
2022/04/02 04:20:22;;;;;;;18.38;4.28;;;0.20;99.90;;;;;;5137053;27;20050;-73
2022/04/02 04:22:48;;;;;;;12.18;3.80;;;0.30;99.90;;;;;;5115991;27;20051;-73
2022/04/02 04:25:14;;;;;;;10.02;3.47;;;0.30;99.90;;;;;;5118688;27;20133;-73
2022/04/02 04:27:40;;;;;;;9.73;3.10;;;0.20;99.90;;;;;;5119428;27;20050;-73
2022/04/02 04:30:07;;;;;;;11.80;2.78;;;0.20;99.90;;;;;;5136697;27;20047;-72
2022/04/02 04:32:33;;;;;;;14.68;3.38;;;0.20;99.90;;;;;;5136770;27;20043;-73
2022/04/02 04:34:59;;;;;;;10.87;2.97;;;0.20;99.90;;;;;;5103222;27;20090;-73
2022/04/02 04:37:25;;;;;;;8.07;2.80;;;0.20;99.90;;;;;;5120065;27;20085;-74
2022/04/02 04:39:51;;;;;;;11.68;3.40;;;0.10;99.90;;;;;;5134628;27;20043;-73
2022/04/02 04:42:17;;;;;;;8.90;2.63;;;0.10;99.90;;;;;;5137162;27;20047;-73
2022/04/02 04:44:43;;;;;;;12.55;3.97;;;0.10;99.90;;;;;;5154099;27;20081;-73
2022/04/02 04:47:10;;;;;;;14.25;3.40;;;0.20;99.90;;;;;;5136728;27;20043;-72
2022/04/02 04:49:36;;;;;;;13.90;2.95;;;0.10;99.90;;;;;;5154912;27;20103;-73
2022/04/02 04:52:03;;;;;;;9.50;3.28;;;0.10;99.90;;;;;;5119533;27;20046;-73
2022/04/02 04:54:29;;;;;;;14.75;5.03;;;0.10;99.90;;;;;;5153528;27;20061;-74
2022/04/02 04:56:55;;;;;;;9.35;2.83;;;0.30;99.90;;;;;;5137107;27;20046;-74
2022/04/02 04:59:21;;;;;;;16.27;4.60;;;0.00;99.90;;;;;;5119462;27;20154;-73
2022/04/02 05:01:47;;;;;;;16.30;3.50;;;0.20;99.90;;;;;;5136141;27;20453;-73
2022/04/02 05:04:13;;;;;;;9.10;3.10;;;0.20;99.90;;;;;;5102332;27;20046;-73
2022/04/02 05:06:39;;;;;;;7.97;2.45;;;0.10;99.90;;;;;;5136591;27;20043;-72
2022/04/02 05:09:06;;;;;;;11.85;3.67;;;0.10;99.90;;;;;;5104675;27;20078;-72
2022/04/02 05:11:32;;;;;;;11.70;3.40;;;0.20;99.90;;;;;;5115512;27;20429;-74
2022/04/02 05:13:58;;;;;;;14.18;4.35;;;0.10;99.90;;;;;;5133993;27;20059;-73
2022/04/02 05:16:26;;;;;;;17.33;4.50;;;0.10;99.90;;;;;;5120658;27;20066;-73
2022/04/02 05:18:51;;;;;;;;;;;0.20;99.90;;;;;;5134098;27;20054;-73
2022/04/02 05:21:17;;;;;;;12.98;4.18;;;0.30;99.90;;;;;;5115680;27;19923;-72
2022/04/02 05:23:43;;;;;;;14.30;3.35;;;0.30;99.90;;;;;;5128288;27;20347;-73
2022/04/02 05:26:09;;;;;;;12.02;3.42;;;0.30;99.90;;;;;;5131455;27;20035;-72
2022/04/02 05:28:35;;;;;;;11.85;3.42;;;0.20;99.90;;;;;;5115775;27;20107;-71
2022/04/02 05:31:01;;;;;;;11.10;3.50;;;0.30;99.90;;;;;;5101690;27;20039;-72
2022/04/02 05:33:26;;;;;;;13.07;3.55;;;0.20;99.90;;;;;;5115636;27;20050;-72
2022/04/02 05:35:52;;;;;;;14.07;3.83;;;0.30;99.90;;;;;;5133900;27;20039;-72
2022/04/02 05:38:18;;;;;;;13.85;3.30;;;0.30;99.90;;;;;;5136813;27;20146;-72
2022/04/02 05:40:44;;;;;;;9.65;2.72;;;0.40;99.90;;;;;;5118764;27;20081;-72
2022/04/02 05:43:09;;;;;;;12.90;3.40;;;0.40;99.90;;;;;;5133380;27;20086;-72
2022/04/02 05:45:35;;;;;;;10.93;3.38;;;0.40;99.90;;;;;;5103539;27;20095;-73
2022/04/02 05:48:01;;;;;;;12.93;3.58;;;0.40;99.90;;;;;;5120622;27;20118;-73
2022/04/02 05:50:27;;;;;;;13.85;3.95;;;0.40;99.90;;;;;;5139245;27;20103;-70
2022/04/02 05:52:53;;;;;;;9.05;2.97;;;0.50;99.90;;;;;;5124999;27;20054;-73
2022/04/02 05:55:19;;;;;;;12.07;3.37;;;0.50;99.90;;;;;;5145575;27;20049;-74
2022/04/02 05:57:46;;;;;;;14.90;3.60;;;0.50;99.90;;;;;;5153560;27;20111;-73
2022/04/02 06:00:14;;;;;;;12.30;3.40;;;0.60;99.90;;;;;;5145114;27;20397;-73
2022/04/02 06:02:40;;;;;;;11.73;3.13;;;0.70;99.90;;;;;;5161263;27;20117;-72
2022/04/02 06:05:08;;;;;;;17.38;4.38;;;0.70;99.90;;;;;;5157798;27;20137;-72
2022/04/02 06:07:34;;;;;;;15.93;4.82;;;0.80;99.90;;;;;;5139244;27;20436;-72
2022/04/02 06:10:02;;;;;;;14.05;3.22;;;0.90;99.90;;;;;;5136263;27;20082;-73
2022/04/02 06:12:32;;;;;;;11.82;3.00;;;0.90;99.90;;;;;;5136883;27;20459;-72
2022/04/02 06:14:59;;;;;;;11.30;3.58;;;0.90;99.90;;;;;;5136628;27;20145;-72
2022/04/02 06:17:25;;;;;;;12.80;2.80;;;1.00;99.90;;;;;;5155049;27;20117;-73
2022/04/02 06:19:51;;;;;;;10.45;3.05;;;1.00;99.90;;;;;;5155784;27;20047;-73
2022/04/02 06:22:17;;;;;;;11.82;3.47;;;1.00;99.90;;;;;;5156811;27;20035;-73
2022/04/02 06:24:43;;;;;;;12.90;3.53;;;1.10;99.90;;;;;;5137366;27;20045;-69
2022/04/02 06:27:08;;;;;;;11.63;3.90;;;1.10;99.90;;;;;;5120850;27;20046;-72
2022/04/02 06:29:34;;;;;;;12.27;3.67;;;1.00;99.90;;;;;;5136095;27;20039;-72
2022/04/02 06:32:00;;;;;;;14.35;3.53;;;1.10;99.90;;;;;;5135592;27;20046;-72
2022/04/02 06:34:26;;;;;;;13.80;3.25;;;1.10;99.90;;;;;;5138264;27;20055;-72
2022/04/02 06:36:52;;;;;;;14.82;4.25;;;1.10;99.90;;;;;;5139347;27;20039;-73
2022/04/02 06:39:17;;;;;;;12.18;3.58;;;1.10;99.90;;;;;;5121249;27;20442;-73
2022/04/02 06:41:43;;;;;;;16.17;3.60;;;1.10;99.90;;;;;;5139942;27;20039;-74
2022/04/02 06:44:09;;;;;;;11.93;3.33;;;1.20;99.90;;;;;;5121653;27;20050;-73
2022/04/02 06:46:37;;;;;;;12.35;3.90;;;1.20;99.90;;;;;;5102738;27;20104;-73
2022/04/02 06:49:06;;;;;;;14.35;4.40;;;1.30;99.90;;;;;;5118360;27;20085;-73
2022/04/02 06:51:32;;;;;;;14.75;3.17;;;1.30;99.90;;;;;;5098169;27;20391;-72
2022/04/02 06:53:58;;;;;;;14.97;3.60;;;1.30;99.90;;;;;;5130213;27;20517;-72
2022/04/02 06:56:24;;;;;;;16.60;4.07;;;1.40;99.90;;;;;;5114440;27;20427;-72
2022/04/02 06:58:50;;;;;;;11.70;3.47;;;1.50;99.90;;;;;;5123552;27;20054;-73
2022/04/02 07:01:16;;;;;;;15.13;4.13;;;1.60;99.90;;;;;;5150420;27;20452;-72
2022/04/02 07:03:41;;;;;;;12.23;3.72;;;1.70;99.90;;;;;;5134385;27;20050;-74
2022/04/02 07:06:08;;;;;;;11.73;3.90;;;1.80;99.90;;;;;;5152777;27;20119;-72
2022/04/02 07:08:36;;;;;;;10.50;3.85;;;1.80;99.90;;;;;;5135183;27;20038;-73
2022/04/02 07:11:03;;;;;;;11.07;3.90;;;1.90;99.90;;;;;;5132433;27;20051;-73
2022/04/02 07:13:30;;;;;;;12.65;4.75;;;2.10;99.90;;;;;;5153096;27;20436;-74
2022/04/02 07:15:57;;;;;;;17.33;5.20;;;2.10;99.90;;;;;;5151903;27;20047;-73
2022/04/02 07:18:24;;;;;;;15.32;3.67;;;2.20;99.90;;;;;;5117765;27;20046;-73
2022/04/02 07:20:51;;;;;;;13.50;3.65;;;2.30;99.90;;;;;;5133926;27;20047;-73
2022/04/02 07:23:18;;;;;;;18.42;3.95;;;2.50;99.90;;;;;;5100331;27;20504;-73
2022/04/02 07:25:44;;;;;;;16.50;3.33;;;2.60;99.90;;;;;;5129765;27;20555;-74
2022/04/02 07:28:10;;;;;;;12.15;4.90;;;2.70;99.90;;;;;;5100416;27;20118;-74
2022/04/02 07:30:39;;;;;;;17.50;4.50;;;2.70;99.90;;;;;;5134407;27;20161;-75
2022/04/02 07:33:06;;;;;;;13.87;3.97;;;2.70;99.90;;;;;;5116556;27;20085;-73
2022/04/02 07:35:42;;;;;;;10.80;3.47;;;2.80;99.90;;;;;;5117932;27;20074;-74
2022/04/02 07:38:22;;;;;;;12.85;3.13;;;2.80;99.90;;;;;;5130462;28;20051;-74
2022/04/02 07:41:27;;;;;;;11.45;3.42;;;2.90;99.90;;;;;;5096898;28;20047;-73
2022/04/02 07:44:01;;;;;;;15.68;4.10;;;3.00;99.90;;;;;;5131138;28;20130;-73
2022/04/02 07:46:30;;;;;;;15.30;4.18;;;3.00;99.90;;;;;;5147046;27;20123;-74
2022/04/02 07:48:57;;;;;;;13.02;4.47;;;3.00;99.90;;;;;;5155207;27;20121;-73
2022/04/02 07:51:28;;;;;;;18.88;3.92;;;3.10;99.90;;;;;;5122754;27;20126;-73
2022/04/02 07:54:02;;;;;;;15.07;4.32;;;3.10;99.90;;;;;;5140521;27;20125;-75
2022/04/02 07:56:42;;;;;;;14.65;5.40;;;3.10;99.90;;;;;;5125391;27;20134;-74
2022/04/02 07:59:11;;;;;;;16.23;3.83;;;3.20;99.90;;;;;;5131294;28;20066;-75
2022/04/02 08:01:36;;;;;;;10.60;2.72;;;3.30;99.90;;;;;;5122599;28;20055;-74
2022/04/02 08:04:07;;;;;;;9.88;3.22;;;3.40;99.90;;;;;;5108983;28;20054;-75
2022/04/02 08:06:34;;;;;;;12.48;3.25;;;3.60;99.90;;;;;;5122582;27;20063;-73
2022/04/02 08:09:00;;;;;;;14.10;3.22;;;3.70;99.90;;;;;;5123243;27;20051;-73
2022/04/02 08:11:27;;;;;;;10.95;3.38;;;3.90;99.90;;;;;;5123633;27;20047;-73
2022/04/02 08:13:54;;;;;;;15.85;3.70;;;4.00;99.90;;;;;;5158376;27;20050;-74
2022/04/02 08:16:21;;;;;;;13.68;2.90;;;4.00;99.90;;;;;;5145240;27;20062;-72
2022/04/02 08:18:48;;;;;;;11.32;3.42;;;4.10;99.90;;;;;;5145631;27;20096;-75
2022/04/02 08:21:17;;;;;;;8.60;2.75;;;4.30;99.90;;;;;;5162228;27;20467;-71
2022/04/02 08:23:43;;;;;;;11.27;3.58;;;4.30;99.90;;;;;;5146545;27;20050;-73
2022/04/02 08:26:30;;;;;;;14.88;3.63;;;4.50;99.90;;;;;;5141696;27;20047;-72
2022/04/02 08:29:48;;;;;;;10.27;2.35;;;4.40;99.90;;;;;;5160943;27;20446;-75
2022/04/02 08:32:35;;;;;;;9.85;3.47;;;4.50;99.90;;;;;;5023279;28;20489;-74
2022/04/02 08:35:07;;;;;;;10.75;3.00;;;4.60;99.90;;;;;;5033693;28;20509;-73
2022/04/02 08:38:02;;;;;;;6.93;3.22;;;4.70;99.90;;;;;;5097946;27;20567;-75
2022/04/02 08:40:54;;;;;;;15.35;2.85;;;4.60;99.90;;;;;;5098483;27;20061;-71
2022/04/02 08:43:48;;;;;;;9.70;3.15;;;4.80;99.90;;;;;;5140348;27;20139;-74
2022/04/02 08:47:01;;;;;;;9.23;2.63;;;5.00;99.90;;;;;;5118892;27;20055;-73
2022/04/02 08:49:36;;;;;;;8.40;2.95;;;5.30;99.90;;;;;;5121735;27;20115;-75
2022/04/02 08:52:05;;;;;;;10.55;3.08;;;5.30;99.90;;;;;;5126207;27;20078;-73
2022/04/02 08:54:38;;;;;;;9.70;3.10;;;5.50;99.90;;;;;;5144110;27;20079;-73
2022/04/02 08:57:39;;;;;;;6.43;2.22;;;5.50;99.90;;;;;;5141584;27;20053;-73
2022/04/02 09:00:07;;;;;;;7.32;1.92;;;5.80;99.90;;;;;;5132473;27;20053;-73
2022/04/02 09:02:41;;;;;;;9.80;3.33;;;5.70;99.90;;;;;;5131938;27;20042;-73
2022/04/02 09:05:32;;;;;;;9.38;2.15;;;5.80;99.90;;;;;;5167999;27;20088;-73
2022/04/02 09:08:04;;;;;;;8.18;3.25;;;6.10;99.90;;;;;;5115015;27;20058;-73
2022/04/02 09:10:52;;;;;;;8.73;2.00;;;5.80;99.90;;;;;;5147911;27;20047;-73
2022/04/02 09:13:37;;;;;;;10.38;3.63;;;5.90;99.90;;;;;;5170709;27;20058;-74
2022/04/02 09:16:05;;;;;;;11.40;3.53;;;5.70;99.90;;;;;;5148776;27;20047;-75
2022/04/02 09:18:58;;;;;;;7.75;2.30;;;6.20;99.90;;;;;;5146657;27;20042;-75
2022/04/02 09:21:43;;;;;;;8.65;2.67;;;6.50;99.90;;;;;;5129946;27;20046;-73
2022/04/02 09:24:24;;;;;;;7.47;2.00;;;6.50;99.90;;;;;;5147508;27;20060;-72
2022/04/02 09:27:02;;;;;;;8.90;2.50;;;6.30;99.90;;;;;;5127592;27;20383;-71
2022/04/02 09:29:55;;;;;;;8.00;2.50;;;6.40;99.90;;;;;;5137636;27;20100;-73
2022/04/02 09:32:49;;;;;;;7.63;1.60;;;6.30;99.90;;;;;;5147402;27;20202;-73
2022/04/02 09:35:40;;;;;;;6.80;2.20;;;6.40;99.90;;;;;;5165732;27;20628;-72
2022/04/02 09:38:34;;;;;;;8.18;3.08;;;6.00;99.90;;;;;;5143888;27;20050;-73
2022/04/02 09:41:27;;;;;;;8.70;2.10;;;5.60;99.90;;;;;;5145956;27;20450;-73
2022/04/02 09:44:12;;;;;;;7.15;2.35;;;5.60;99.90;;;;;;5147795;27;20051;-74
2022/04/02 09:46:41;;;;;;;12.50;2.75;;;5.20;99.90;;;;;;5164635;27;20050;-71
2022/04/02 09:49:28;;;;;;;14.40;3.70;;;5.00;99.90;;;;;;5163502;27;20039;-73
2022/04/02 09:52:05;;;;;;;11.48;3.15;;;4.70;99.90;;;;;;5145799;27;20043;-73
2022/04/02 09:54:48;;;;;;;11.93;3.22;;;4.80;99.90;;;;;;5145800;27;20078;-72
2022/04/02 09:57:22;;;;;;;9.65;2.75;;;4.60;99.90;;;;;;5144480;27;20050;-72
2022/04/02 10:00:08;;;;;;;9.98;2.78;;;4.60;99.90;;;;;;5143921;27;20053;-73
2022/04/02 10:03:01;;;;;;;9.95;1.90;;;4.80;99.90;;;;;;5126598;27;20096;-74
2022/04/02 10:05:42;;;;;;;12.25;3.55;;;4.80;99.90;;;;;;5142556;27;20059;-73
2022/04/02 10:08:46;;;;;;;10.18;3.22;;;4.50;99.90;;;;;;5142379;27;20058;-72
2022/04/02 10:11:18;;;;;;;9.13;1.98;;;4.50;99.90;;;;;;5148568;27;20062;-74
2022/04/02 10:13:44;;;;;;;7.88;1.63;;;4.40;99.90;;;;;;5161828;27;20386;-74
2022/04/02 10:16:12;;;;;;;8.85;2.38;;;4.60;99.90;;;;;;5160386;27;20635;-73
2022/04/02 10:18:40;;;;;;;9.55;2.63;;;4.50;99.90;;;;;;5141266;27;20062;-74
2022/04/02 10:21:06;;;;;;;9.55;1.75;;;4.70;99.90;;;;;;5143195;27;20042;-73
2022/04/02 10:23:36;;;;;;;8.32;1.90;;;4.80;99.90;;;;;;5142495;27;20065;-73
2022/04/02 10:26:16;;;;;;;7.25;1.38;;;4.90;99.90;;;;;;5140813;27;20038;-72
2022/04/02 10:28:51;;;;;;;8.02;1.80;;;4.90;99.90;;;;;;5141671;27;20079;-74
2022/04/02 10:31:40;;;;;;;5.63;1.33;;;4.90;99.90;;;;;;5158279;27;20078;-73
2022/04/02 10:34:10;;;;;;;5.93;2.03;;;5.10;99.90;;;;;;5121669;27;20049;-73
2022/04/02 10:36:54;;;;;;;8.55;1.88;;;5.20;99.90;;;;;;5124655;27;20067;-74
2022/04/02 10:39:24;;;;;;;6.72;2.00;;;5.20;99.90;;;;;;5141859;27;20047;-72
2022/04/02 10:42:03;;;;;;;7.53;1.90;;;5.20;99.90;;;;;;5128739;27;20115;-74
2022/04/02 10:45:03;;;;;;;5.82;1.48;;;5.50;99.90;;;;;;5163301;27;20045;-75
2022/04/02 10:47:30;;;;;;;7.70;1.17;;;4.90;99.90;;;;;;5150225;27;20358;-75
2022/04/02 10:50:07;;;;;;;6.63;1.60;;;4.70;99.90;;;;;;5123473;27;20059;-75
2022/04/02 10:52:34;;;;;;;3.80;0.93;;;4.90;99.90;;;;;;5160875;27;20462;-72
2022/04/02 10:55:00;;;;;;;6.18;1.67;;;5.00;99.90;;;;;;5144889;27;20051;-72
2022/04/02 10:57:32;;;;;;;7.53;1.70;;;4.70;99.90;;;;;;5126934;27;20148;-71
2022/04/02 11:00:10;;;;;;;6.28;1.60;;;5.00;99.90;;;;;;5142346;27;20054;-72
2022/04/02 11:02:45;;;;;;;7.18;1.98;;;5.30;99.90;;;;;;5140952;27;20478;-75
2022/04/02 11:05:17;;;;;;;5.50;1.95;;;5.40;99.90;;;;;;5139438;27;20099;-74
2022/04/02 11:07:49;;;;;;;8.00;1.27;;;5.30;99.90;;;;;;5161575;27;20111;-73
2022/04/02 11:10:17;;;;;;;5.00;1.42;;;5.30;99.90;;;;;;5160243;27;20053;-73
2022/04/02 11:12:48;;;;;;;5.13;1.25;;;5.50;99.90;;;;;;5160645;27;20351;-72
2022/04/02 11:15:19;;;;;;;3.63;1.05;;;5.90;99.90;;;;;;5160461;27;20055;-74
2022/04/02 11:17:49;;;;;;;4.68;1.15;;;6.20;97.80;;;;;;5160560;27;20057;-74
2022/04/02 11:20:17;;;;;;;4.68;1.00;;;6.30;98.80;;;;;;5141628;27;20076;-72
2022/04/02 11:22:52;;;;;;;4.80;0.90;;;6.70;99.90;;;;;;5158945;27;20375;-74
2022/04/02 11:25:28;;;;;;;4.38;1.00;;;6.80;95.70;;;;;;5140249;27;20054;-73
2022/04/02 11:28:00;;;;;;;6.38;1.13;;;7.20;95.70;;;;;;5158884;27;20058;-73
2022/04/02 11:30:29;;;;;;;3.25;1.00;;;7.20;90.70;;;;;;5158810;27;20051;-73
2022/04/02 11:33:04;;;;;;;4.82;1.10;;;7.20;91.90;;;;;;5123033;27;20053;-73
2022/04/02 11:35:35;;;;;;;1.92;0.50;;;6.90;92.10;;;;;;5123403;27;20049;-73
2022/04/02 11:38:22;;;;;;;6.03;1.05;;;6.70;95.30;;;;;;5138463;27;20049;-74
2022/04/02 11:41:09;;;;;;;8.10;1.52;;;6.50;98.70;;;;;;5139310;27;20047;-75
2022/04/02 11:43:36;;;;;;;;;;;5.50;99.90;;;;;;5162264;27;20042;-74
2022/04/02 11:46:04;;;;;;;8.00;2.50;;;5.00;99.90;;;;;;5145424;27;19919;-74
2022/04/02 11:48:36;;;;;;;6.13;2.40;;;5.00;99.90;;;;;;5164659;27;20092;-74
2022/04/02 11:51:18;;;;;;;6.05;1.80;;;4.80;99.90;;;;;;5166372;27;20362;-72
2022/04/02 11:53:46;;;;;;;4.93;1.42;;;5.00;99.90;;;;;;5141213;27;20047;-75
2022/04/02 11:56:29;;;;;;;3.78;1.52;;;5.00;99.90;;;;;;5121111;27;20053;-73
2022/04/02 11:59:00;;;;;;;7.18;1.67;;;5.10;99.90;;;;;;5128635;27;20117;-73
2022/04/02 12:01:45;;;;;;;8.20;1.00;;;5.40;99.90;;;;;;5156670;27;20051;-74
2022/04/02 12:04:15;;;;;;;4.75;1.40;;;5.40;99.90;;;;;;5117588;27;20189;-74
2022/04/02 12:06:44;;;;;;;6.32;1.27;;;5.50;99.90;;;;;;5119553;27;20047;-74
2022/04/02 12:09:19;;;;;;;12.50;1.80;;;5.50;99.90;;;;;;5117618;27;20050;-73
2022/04/02 12:11:52;;;;;;;6.25;1.38;;;5.80;99.90;;;;;;5156450;27;20086;-73
2022/04/02 12:14:33;;;;;;;8.45;1.55;;;6.00;99.90;;;;;;5155397;27;20079;-72
2022/04/02 12:17:01;;;;;;;6.75;1.73;;;6.30;99.90;;;;;;5158352;27;20086;-72
2022/04/02 12:19:42;;;;;;;5.50;1.58;;;6.40;99.90;;;;;;5157098;27;20506;-73
2022/04/02 12:22:27;;;;;;;5.18;1.20;;;6.20;99.90;;;;;;5138705;27;20055;-74
2022/04/02 12:24:58;;;;;;;8.93;1.80;;;5.90;99.90;;;;;;5119518;27;20043;-74
2022/04/02 12:27:28;;;;;;;8.80;1.95;;;5.80;99.90;;;;;;5137607;27;20114;-73
2022/04/02 12:29:57;;;;;;;5.05;1.30;;;5.80;99.90;;;;;;5156298;27;20082;-74
2022/04/02 12:32:34;;;;;;;5.78;1.50;;;5.90;99.90;;;;;;5120033;27;20038;-72
2022/04/02 12:35:02;;;;;;;;;;;6.10;99.90;;;;;;5156446;27;20055;-72
2022/04/02 12:37:39;;;;;;;4.32;1.20;;;6.00;99.90;;;;;;5137183;27;20274;-72
2022/04/02 12:40:20;;;;;;;;;;;5.70;99.90;;;;;;5119806;27;20450;-73
2022/04/02 12:42:47;;;;;;;9.38;2.67;;;5.40;99.90;;;;;;5156240;27;19938;-72
2022/04/02 12:45:22;;;;;;;11.00;2.40;;;5.10;99.90;;;;;;5136662;27;20075;-73
2022/04/02 12:48:00;;;;;;;4.43;1.55;;;5.10;99.90;;;;;;5155676;27;20047;-74
2022/04/02 12:50:34;;;;;;;5.18;1.70;;;5.40;99.90;;;;;;5119420;27;20046;-77
2022/04/02 12:53:01;;;;;;;6.95;1.60;;;5.70;99.90;;;;;;5156155;27;20039;-74
2022/04/02 12:55:29;;;;;;;6.05;1.60;;;5.70;99.90;;;;;;5154326;27;20098;-74
2022/04/02 12:57:59;;;;;;;5.95;1.70;;;6.00;99.90;;;;;;5156203;27;20047;-72
2022/04/02 13:00:30;;;;;;;14.25;3.05;;;6.10;99.90;;;;;;5155349;27;20417;-72
2022/04/02 13:03:00;;;;;;;5.45;1.65;;;6.00;99.90;;;;;;5157392;27;20042;-72
2022/04/02 13:05:44;;;;;;;5.40;1.20;;;6.10;99.90;;;;;;5139020;27;20050;-74
2022/04/02 13:08:25;;;;;;;6.32;1.33;;;6.30;99.90;;;;;;5158035;27;20397;-73
2022/04/02 13:10:59;;;;;;;4.30;1.35;;;6.20;99.90;;;;;;5156210;27;20039;-74
2022/04/02 13:13:39;;;;;;;4.65;1.30;;;6.40;99.90;;;;;;5156341;27;20054;-73
2022/04/02 13:16:07;;;;;;;6.55;1.50;;;6.30;99.90;;;;;;5126198;27;20478;-75
2022/04/02 13:21:20;;;;;;;3.83;1.10;;;6.10;99.90;;;;;;5154455;27;20445;-72